Time;durP1;ratioP1;P1;durP2;ratioP2;P2;SDS_P1;SDS_P2;PMS_P1;PMS_P2;Temp;Humidity;BMP_temperature;BMP_pressure;BME280_temperature;BME280_humidity;BME280_pressure;Samples;Min_cycle;Max_cycle;Signal;HPM_P1;HPM_P2
2023/08/11 00:00:32;;;;;;;8.02;4.75;;;19.60;74.70;;;;;;5036879;28;20025;-65
2023/08/11 00:02:58;;;;;;;9.10;5.13;;;19.60;74.80;;;;;;5040798;28;20032;-65
2023/08/11 00:05:24;;;;;;;7.72;4.82;;;19.60;74.80;;;;;;5038603;28;21262;-65
2023/08/11 00:07:50;;;;;;;7.45;4.70;;;19.60;74.90;;;;;;5039030;28;20354;-65
2023/08/11 00:10:19;;;;;;;9.32;4.90;;;19.60;74.90;;;;;;5037731;28;20067;-65
2023/08/11 00:12:46;;;;;;;7.57;4.47;;;19.60;75.10;;;;;;5034055;28;20021;-65
2023/08/11 00:15:12;;;;;;;9.23;4.80;;;19.60;75.00;;;;;;5036720;28;20020;-66
2023/08/11 00:17:39;;;;;;;9.25;4.97;;;19.50;75.10;;;;;;5042063;28;20089;-66
2023/08/11 00:20:06;;;;;;;8.85;4.90;;;19.50;75.10;;;;;;5036173;28;20020;-66
2023/08/11 00:22:32;;;;;;;7.57;4.63;;;19.50;75.10;;;;;;5039484;28;20098;-65
2023/08/11 00:24:58;;;;;;;9.05;5.10;;;19.50;75.20;;;;;;5030084;28;20043;-65
2023/08/11 00:27:24;;;;;;;8.55;4.97;;;19.40;75.20;;;;;;5035064;28;20026;-65
2023/08/11 00:29:50;;;;;;;7.93;4.80;;;19.40;75.90;;;;;;5035864;28;20037;-65
2023/08/11 00:32:16;;;;;;;7.63;4.78;;;19.40;75.30;;;;;;5030534;28;20061;-65
2023/08/11 00:34:42;;;;;;;7.20;4.60;;;19.40;76.00;;;;;;5049227;28;20021;-65
2023/08/11 00:37:08;;;;;;;9.60;5.20;;;19.40;75.40;;;;;;5043651;28;20029;-65
2023/08/11 00:39:33;;;;;;;9.48;5.45;;;19.40;75.40;;;;;;5049434;28;20035;-66
2023/08/11 00:41:59;;;;;;;8.02;4.82;;;19.40;75.50;;;;;;5040934;28;20373;-65
2023/08/11 00:44:26;;;;;;;9.63;5.30;;;19.40;75.50;;;;;;5042856;28;20061;-65
2023/08/11 00:46:52;;;;;;;7.75;5.43;;;19.40;75.60;;;;;;5041472;28;20025;-66
2023/08/11 00:49:18;;;;;;;9.45;4.93;;;19.40;75.60;;;;;;5046420;28;20029;-65
2023/08/11 00:51:44;;;;;;;8.60;4.93;;;19.30;75.60;;;;;;5036535;28;20570;-65
2023/08/11 00:54:11;;;;;;;9.23;5.45;;;19.30;75.60;;;;;;5037018;28;20111;-65
2023/08/11 00:56:44;;;;;;;8.48;5.53;;;19.30;75.70;;;;;;5034721;28;20021;-65
2023/08/11 00:59:14;;;;;;;8.65;5.40;;;19.30;75.70;;;;;;5038608;28;20426;-65
2023/08/11 01:01:40;;;;;;;9.80;5.60;;;19.20;75.70;;;;;;5045721;28;20116;-65
2023/08/11 01:04:07;;;;;;;8.30;4.97;;;19.20;75.70;;;;;;5046243;28;20163;-65
2023/08/11 01:06:45;;;;;;;10.32;5.57;;;19.30;75.80;;;;;;5036254;28;20054;-65
2023/08/11 01:09:46;;;;;;;9.48;5.50;;;19.30;75.80;;;;;;5040675;28;20021;-65
2023/08/11 01:12:12;;;;;;;8.23;5.15;;;19.30;75.80;;;;;;5037816;28;20021;-65
2023/08/11 01:15:00;;;;;;;9.00;5.50;;;19.20;75.80;;;;;;5042219;28;20037;-65
2023/08/11 01:17:29;;;;;;;9.05;5.65;;;19.20;75.80;;;;;;5040058;28;20014;-65
2023/08/11 01:19:55;;;;;;;7.95;5.50;;;19.20;75.90;;;;;;5037135;28;20025;-65
2023/08/11 01:22:27;;;;;;;9.25;5.68;;;19.20;75.90;;;;;;5037188;28;20052;-65
2023/08/11 01:24:55;;;;;;;8.88;5.38;;;19.20;76.00;;;;;;5048044;28;20056;-65
2023/08/11 01:27:21;;;;;;;9.10;5.50;;;19.20;76.00;;;;;;5034470;28;20539;-65
2023/08/11 01:29:47;;;;;;;8.73;5.70;;;19.20;76.10;;;;;;5043450;28;20025;-65
2023/08/11 01:32:13;;;;;;;9.05;5.53;;;19.10;76.00;;;;;;5039877;28;20028;-65
2023/08/11 01:34:38;;;;;;;8.38;5.43;;;19.10;76.10;;;;;;5034401;28;20068;-65
2023/08/11 01:37:04;;;;;;;8.30;5.60;;;19.10;76.10;;;;;;5043193;28;20152;-65
2023/08/11 01:39:31;;;;;;;7.75;4.85;;;19.10;76.10;;;;;;5034496;28;20442;-65
2023/08/11 01:41:58;;;;;;;9.38;5.25;;;19.10;76.10;;;;;;5040547;28;20029;-65
2023/08/11 01:44:25;;;;;;;10.88;5.53;;;19.10;76.20;;;;;;5033976;28;20030;-65
2023/08/11 01:46:54;;;;;;;9.32;5.35;;;19.10;76.30;;;;;;5037449;28;20040;-65
2023/08/11 01:49:24;;;;;;;8.55;5.80;;;19.10;76.30;;;;;;5034966;28;20026;-65
2023/08/11 01:51:50;;;;;;;8.95;5.22;;;19.10;76.40;;;;;;5040398;28;20405;-65
2023/08/11 01:54:16;;;;;;;10.10;6.18;;;19.10;76.40;;;;;;5034909;28;20032;-65
2023/08/11 01:56:42;;;;;;;8.40;5.25;;;19.10;76.30;;;;;;5039374;28;20047;-65
2023/08/11 01:59:13;;;;;;;9.18;6.07;;;19.10;76.40;;;;;;5041759;28;20033;-65
2023/08/11 02:01:40;;;;;;;10.23;5.45;;;19.10;76.40;;;;;;5045191;28;20052;-65
2023/08/11 02:04:08;;;;;;;8.68;5.55;;;19.00;76.30;;;;;;5037030;28;20057;-65
2023/08/11 02:06:37;;;;;;;9.00;5.60;;;19.00;76.40;;;;;;5036432;28;20074;-65
2023/08/11 02:09:07;;;;;;;9.93;5.95;;;19.00;76.40;;;;;;5047421;28;20462;-65
2023/08/11 02:11:34;;;;;;;9.07;5.28;;;19.00;76.50;;;;;;5035089;28;20065;-65
2023/08/11 02:13:59;;;;;;;8.27;5.10;;;19.00;76.50;;;;;;5036366;28;20044;-65
2023/08/11 02:16:25;;;;;;;9.63;5.30;;;18.90;76.50;;;;;;5035815;28;20018;-65
2023/08/11 02:18:51;;;;;;;9.35;6.00;;;18.90;76.50;;;;;;5042592;28;20443;-65
2023/08/11 02:21:16;;;;;;;9.68;5.60;;;18.90;76.60;;;;;;5035546;28;20064;-65
2023/08/11 02:23:43;;;;;;;9.35;5.65;;;18.90;76.60;;;;;;5038498;28;20426;-65
2023/08/11 02:26:12;;;;;;;8.57;5.53;;;18.90;76.60;;;;;;5036044;28;20140;-65
2023/08/11 02:28:38;;;;;;;9.55;6.00;;;18.90;76.70;;;;;;5037788;28;20025;-66
2023/08/11 02:31:05;;;;;;;8.40;5.40;;;18.90;76.70;;;;;;5040135;28;20021;-65
2023/08/11 02:33:31;;;;;;;9.68;5.45;;;18.90;76.80;;;;;;5038596;28;20017;-65
2023/08/11 02:35:56;;;;;;;11.20;5.47;;;18.80;76.80;;;;;;5041428;28;20039;-65
2023/08/11 02:38:22;;;;;;;9.50;5.50;;;18.80;76.80;;;;;;5043722;28;20025;-65
2023/08/11 02:40:48;;;;;;;11.35;6.07;;;18.80;76.80;;;;;;5061030;28;20033;-65
2023/08/11 02:43:14;;;;;;;9.38;5.80;;;18.80;76.80;;;;;;5051040;28;20029;-65
2023/08/11 02:45:42;;;;;;;9.23;5.88;;;18.80;76.80;;;;;;5049221;28;20114;-65
2023/08/11 02:48:08;;;;;;;8.68;5.50;;;18.80;76.90;;;;;;5068235;28;20458;-65
2023/08/11 02:50:33;;;;;;;10.30;6.22;;;18.80;76.90;;;;;;5049335;28;20108;-65
2023/08/11 02:52:59;;;;;;;10.95;6.65;;;18.70;76.90;;;;;;5030214;28;20056;-65
2023/08/11 02:55:25;;;;;;;8.90;5.88;;;18.70;76.90;;;;;;5051915;28;20111;-65
2023/08/11 02:57:51;;;;;;;9.52;6.32;;;18.70;76.90;;;;;;5046029;28;20032;-65
2023/08/11 03:00:17;;;;;;;10.45;6.15;;;18.70;77.00;;;;;;5048558;28;20112;-65
2023/08/11 03:02:47;;;;;;;9.18;5.57;;;18.70;77.00;;;;;;5049356;28;20029;-65
2023/08/11 03:05:14;;;;;;;9.57;6.10;;;18.70;77.10;;;;;;5050029;28;20039;-65
2023/08/11 03:07:43;;;;;;;10.25;6.63;;;18.70;77.10;;;;;;5042900;28;20560;-65
2023/08/11 03:10:09;;;;;;;10.02;6.43;;;18.70;77.20;;;;;;5051776;28;20039;-65
2023/08/11 03:12:36;;;;;;;9.65;6.40;;;18.70;77.20;;;;;;5025799;28;20152;-65
2023/08/11 03:15:06;;;;;;;9.55;6.07;;;18.60;77.10;;;;;;5053760;28;20421;-65
2023/08/11 03:17:35;;;;;;;9.10;6.13;;;18.60;77.10;;;;;;5036166;28;20388;-65
2023/08/11 03:20:02;;;;;;;9.60;6.38;;;18.60;77.10;;;;;;5049469;28;20036;-65
2023/08/11 03:22:29;;;;;;;10.63;6.63;;;18.60;77.20;;;;;;5036988;28;20124;-65
2023/08/11 03:24:57;;;;;;;11.02;6.60;;;18.60;77.20;;;;;;5053611;28;20120;-65
2023/08/11 03:27:23;;;;;;;10.48;6.78;;;18.60;77.20;;;;;;5048778;28;20029;-65
2023/08/11 03:30:17;;;;;;;9.65;6.53;;;18.60;77.30;;;;;;5051793;28;20405;-65
2023/08/11 03:32:48;;;;;;;12.57;6.40;;;18.60;77.20;;;;;;5033264;28;20033;-65
2023/08/11 03:35:17;;;;;;;8.90;5.88;;;18.50;77.20;;;;;;5053608;28;20025;-65
2023/08/11 03:37:43;;;;;;;10.18;6.63;;;18.50;77.30;;;;;;5022273;28;20025;-65
2023/08/11 03:40:12;;;;;;;9.85;6.50;;;18.50;77.30;;;;;;5065150;28;20117;-65
2023/08/11 03:42:43;;;;;;;10.65;6.93;;;18.50;77.30;;;;;;5046753;28;20036;-65
2023/08/11 03:45:12;;;;;;;9.90;6.45;;;18.50;77.40;;;;;;5039434;28;20380;-65
2023/08/11 03:47:40;;;;;;;9.15;6.35;;;18.50;77.40;;;;;;5051580;28;20042;-65
2023/08/11 03:50:08;;;;;;;11.63;6.70;;;18.40;77.40;;;;;;5050828;28;20411;-65
2023/08/11 03:52:36;;;;;;;10.20;7.07;;;18.40;77.40;;;;;;5047102;28;20465;-65
2023/08/11 03:55:03;;;;;;;9.70;7.03;;;18.40;77.40;;;;;;5047759;28;20104;-65
2023/08/11 03:57:29;;;;;;;10.45;6.80;;;18.40;77.50;;;;;;5049304;28;20029;-65
2023/08/11 03:59:55;;;;;;;10.40;7.22;;;18.40;77.50;;;;;;5046709;28;20086;-65
2023/08/11 04:02:22;;;;;;;12.48;6.65;;;18.40;77.50;;;;;;5042640;28;20025;-65
2023/08/11 04:04:49;;;;;;;11.80;7.07;;;18.30;77.50;;;;;;5049436;28;20063;-65
2023/08/11 04:07:14;;;;;;;12.77;6.93;;;18.40;77.60;;;;;;5035600;28;20036;-65
2023/08/11 04:09:43;;;;;;;10.13;7.07;;;18.30;77.60;;;;;;5054074;28;20449;-65
2023/08/11 04:12:10;;;;;;;10.93;7.10;;;18.30;77.60;;;;;;5067667;28;21041;-65
2023/08/11 04:14:38;;;;;;;10.25;7.13;;;18.30;77.60;;;;;;5049212;28;20100;-65
2023/08/11 04:17:04;;;;;;;10.27;7.45;;;18.30;77.60;;;;;;5053774;28;20032;-65
2023/08/11 04:19:30;;;;;;;10.05;6.90;;;18.30;77.70;;;;;;5050997;28;20025;-65
2023/08/11 04:21:55;;;;;;;9.63;6.18;;;18.30;77.70;;;;;;5055207;28;20481;-65
2023/08/11 04:24:21;;;;;;;10.25;7.35;;;18.30;77.80;;;;;;5051824;28;20048;-65
2023/08/11 04:26:47;;;;;;;11.43;6.90;;;18.30;77.70;;;;;;5056408;28;20472;-65
2023/08/11 04:29:13;;;;;;;11.55;7.50;;;18.30;77.80;;;;;;5050881;28;20346;-65
2023/08/11 04:31:40;;;;;;;11.00;6.95;;;18.20;77.80;;;;;;5056554;28;20032;-65
2023/08/11 04:34:06;;;;;;;10.82;7.20;;;18.30;77.80;;;;;;5066907;28;20040;-65
2023/08/11 04:36:33;;;;;;;11.23;7.18;;;18.30;77.80;;;;;;5049112;28;20113;-65
2023/08/11 04:38:59;;;;;;;11.15;7.28;;;18.30;77.80;;;;;;5051113;28;20029;-65
2023/08/11 04:41:25;;;;;;;10.35;6.78;;;18.30;77.80;;;;;;5056696;28;20037;-65
2023/08/11 04:43:51;;;;;;;10.07;7.05;;;18.30;77.90;;;;;;5044095;28;20083;-65
2023/08/11 04:46:17;;;;;;;10.85;7.20;;;18.30;77.90;;;;;;5055191;28;20045;-65
2023/08/11 04:48:43;;;;;;;11.93;7.47;;;18.30;77.90;;;;;;5045891;28;20037;-65
2023/08/11 04:51:09;;;;;;;13.38;7.38;;;18.30;77.90;;;;;;5055607;28;20025;-64
2023/08/11 04:53:35;;;;;;;11.10;7.40;;;18.30;77.90;;;;;;5043988;28;20362;-64
2023/08/11 04:56:01;;;;;;;9.68;6.75;;;18.30;77.90;;;;;;5051910;28;20140;-64
2023/08/11 04:58:28;;;;;;;12.05;7.63;;;18.30;77.90;;;;;;5049172;28;20116;-64
2023/08/11 05:00:54;;;;;;;10.15;6.90;;;18.30;78.00;;;;;;5068279;28;20040;-64
2023/08/11 05:03:20;;;;;;;10.50;7.45;;;18.30;78.00;;;;;;5048128;28;20032;-64
2023/08/11 05:05:46;;;;;;;10.55;7.22;;;18.30;78.10;;;;;;5047317;28;20454;-64
2023/08/11 05:08:12;;;;;;;10.60;7.35;;;18.30;78.10;;;;;;5062297;28;20373;-64
2023/08/11 05:10:38;;;;;;;9.80;6.93;;;18.40;78.10;;;;;;5046630;28;20454;-64
2023/08/11 05:13:04;;;;;;;11.50;7.03;;;18.40;78.00;;;;;;5047122;28;20076;-64
2023/08/11 05:15:30;;;;;;;10.57;7.03;;;18.40;78.00;;;;;;5044183;28;20078;-64
2023/08/11 05:17:56;;;;;;;12.48;8.00;;;18.50;78.00;;;;;;5046404;28;20393;-64
2023/08/11 05:20:22;;;;;;;12.02;7.63;;;18.50;78.00;;;;;;5043282;28;20033;-64
2023/08/11 05:22:48;;;;;;;11.27;7.13;;;18.50;78.00;;;;;;5047102;28;20037;-64
2023/08/11 05:25:14;;;;;;;9.75;7.03;;;18.60;78.00;;;;;;5042778;28;20040;-64
2023/08/11 05:27:40;;;;;;;11.10;7.10;;;18.60;77.90;;;;;;5049457;28;20031;-65
2023/08/11 05:30:08;;;;;;;10.68;7.28;;;18.60;77.90;;;;;;5055174;28;20074;-65
2023/08/11 05:32:34;;;;;;;10.32;7.35;;;18.70;78.00;;;;;;5052126;28;20052;-65
2023/08/11 05:35:00;;;;;;;11.65;6.97;;;18.70;77.90;;;;;;5055937;28;20033;-65
2023/08/11 05:37:26;;;;;;;10.73;7.57;;;18.80;77.80;;;;;;5054609;28;20073;-65
2023/08/11 05:39:52;;;;;;;11.13;7.40;;;18.90;77.70;;;;;;5055877;28;20051;-65
2023/08/11 05:42:19;;;;;;;12.18;7.80;;;18.90;77.50;;;;;;5049150;28;20430;-65
2023/08/11 05:44:44;;;;;;;10.90;6.95;;;19.00;77.40;;;;;;5056842;28;20025;-65
2023/08/11 05:47:10;;;;;;;12.70;8.07;;;19.10;77.30;;;;;;5047980;28;20075;-65
2023/08/11 05:49:36;;;;;;;11.07;7.18;;;19.20;77.10;;;;;;5056408;28;20134;-65
2023/08/11 05:52:02;;;;;;;11.50;7.90;;;19.40;76.90;;;;;;5054165;28;20071;-65
2023/08/11 05:54:27;;;;;;;12.90;7.85;;;19.40;76.60;;;;;;5055937;28;20104;-65
2023/08/11 05:56:54;;;;;;;11.13;7.10;;;19.50;76.50;;;;;;5053144;28;20147;-65
2023/08/11 05:59:21;;;;;;;10.27;7.30;;;19.60;76.40;;;;;;5049419;28;20021;-65
2023/08/11 06:01:47;;;;;;;14.95;8.68;;;19.70;76.00;;;;;;5055944;28;20072;-65
2023/08/11 06:04:13;;;;;;;11.88;7.60;;;19.70;75.70;;;;;;5043780;28;20079;-65
2023/08/11 06:06:38;;;;;;;11.43;7.88;;;19.80;75.50;;;;;;5056097;28;20025;-65
2023/08/11 06:09:05;;;;;;;12.38;7.68;;;19.90;75.50;;;;;;5042997;28;20048;-65
2023/08/11 06:11:30;;;;;;;10.23;6.65;;;20.00;75.30;;;;;;5045304;28;20033;-65
2023/08/11 06:13:56;;;;;;;9.90;7.40;;;20.10;75.00;;;;;;5055716;28;20075;-65
2023/08/11 06:16:22;;;;;;;11.23;6.88;;;20.20;74.80;;;;;;5056414;28;20075;-65
2023/08/11 06:18:48;;;;;;;11.80;7.35;;;20.30;74.60;;;;;;5052273;28;20036;-64
2023/08/11 06:21:17;;;;;;;11.57;7.55;;;20.40;74.50;;;;;;5053185;28;20029;-64
2023/08/11 06:23:43;;;;;;;11.13;7.25;;;20.40;74.20;;;;;;5052287;28;20331;-65
2023/08/11 06:26:09;;;;;;;9.75;6.90;;;20.50;73.90;;;;;;5042734;28;20095;-65
2023/08/11 06:28:35;;;;;;;13.15;8.18;;;20.60;73.90;;;;;;5042075;28;20026;-65
2023/08/11 06:31:02;;;;;;;10.55;7.25;;;20.70;73.80;;;;;;5045886;28;20025;-65
2023/08/11 06:33:28;;;;;;;12.52;7.43;;;20.80;73.30;;;;;;5039758;28;20033;-65
2023/08/11 06:35:53;;;;;;;11.93;7.07;;;20.90;73.10;;;;;;5057165;28;20064;-66
2023/08/11 06:38:19;;;;;;;9.20;6.13;;;21.00;72.80;;;;;;5040606;28;20083;-65
2023/08/11 06:40:45;;;;;;;10.70;6.85;;;21.10;72.40;;;;;;5048962;28;20016;-65
2023/08/11 06:43:11;;;;;;;10.38;6.68;;;21.20;72.00;;;;;;5042428;28;20029;-65
2023/08/11 06:45:37;;;;;;;10.48;6.55;;;21.30;71.80;;;;;;5048950;28;20039;-66
2023/08/11 06:48:03;;;;;;;11.77;7.32;;;21.40;71.50;;;;;;5043373;28;20028;-66
2023/08/11 06:50:29;;;;;;;11.77;6.80;;;21.50;71.10;;;;;;5049131;28;20468;-66
2023/08/11 06:52:55;;;;;;;10.82;6.68;;;21.60;70.60;;;;;;5039351;28;20474;-66
2023/08/11 06:55:21;;;;;;;10.15;6.15;;;21.80;70.40;;;;;;5046167;28;20029;-66
2023/08/11 06:57:47;;;;;;;13.02;6.60;;;21.90;70.20;;;;;;5025339;28;20020;-66
2023/08/11 07:00:13;;;;;;;11.77;6.75;;;22.00;69.90;;;;;;5044025;28;20387;-66
2023/08/11 07:02:38;;;;;;;10.57;6.38;;;22.10;69.20;;;;;;5048059;28;20694;-66
2023/08/11 07:05:05;;;;;;;10.55;6.50;;;22.20;69.00;;;;;;5047464;28;20110;-66
2023/08/11 07:07:31;;;;;;;11.77;6.90;;;22.40;69.10;;;;;;5042034;28;20045;-66
2023/08/11 07:09:57;;;;;;;10.68;6.53;;;22.50;68.80;;;;;;5036010;28;20049;-68
2023/08/11 07:12:22;;;;;;;10.23;6.35;;;22.60;68.40;;;;;;5044530;28;20033;-68
2023/08/11 07:14:49;;;;;;;11.15;6.43;;;22.70;68.10;;;;;;5044934;28;20032;-66
2023/08/11 07:17:15;;;;;;;11.82;6.60;;;22.80;67.70;;;;;;5048352;28;20037;-70
2023/08/11 07:19:41;;;;;;;12.57;6.80;;;22.90;67.30;;;;;;5044437;28;20032;-67
2023/08/11 07:22:07;;;;;;;9.20;5.40;;;23.00;66.70;;;;;;5041668;28;20063;-65
2023/08/11 07:24:33;;;;;;;10.25;6.68;;;23.10;66.30;;;;;;5045048;28;20048;-67
2023/08/11 07:26:59;;;;;;;10.48;6.20;;;23.30;66.00;;;;;;5045537;28;20037;-66
2023/08/11 07:29:24;;;;;;;14.68;6.45;;;23.40;65.50;;;;;;5041320;28;20036;-67
2023/08/11 07:31:50;;;;;;;10.52;6.18;;;23.50;65.30;;;;;;5042080;28;20028;-67
2023/08/11 07:34:17;;;;;;;8.95;5.78;;;23.60;65.10;;;;;;5045464;28;20024;-67
2023/08/11 07:36:43;;;;;;;10.85;6.20;;;23.80;64.60;;;;;;5044361;28;20025;-67
2023/08/11 07:39:09;;;;;;;9.13;5.90;;;23.90;64.40;;;;;;5045460;28;20025;-67
2023/08/11 07:41:36;;;;;;;11.00;6.70;;;24.00;64.80;;;;;;5041495;28;20098;-68
2023/08/11 07:44:02;;;;;;;11.00;6.13;;;24.20;63.80;;;;;;5043588;28;20128;-66
2023/08/11 07:46:28;;;;;;;9.88;5.45;;;24.30;63.40;;;;;;5045078;28;20068;-66
2023/08/11 07:48:55;;;;;;;12.68;5.85;;;24.50;63.10;;;;;;5045762;28;20033;-66
2023/08/11 07:51:21;;;;;;;10.77;6.30;;;24.60;62.80;;;;;;5045953;28;20394;-66
2023/08/11 07:53:47;;;;;;;8.93;5.10;;;24.70;62.60;;;;;;5047875;28;20067;-66
2023/08/11 07:56:13;;;;;;;9.88;5.03;;;24.80;62.40;;;;;;5028080;28;20017;-67
2023/08/11 07:58:39;;;;;;;10.13;5.63;;;25.00;62.20;;;;;;5043041;28;20733;-67
2023/08/11 08:01:08;;;;;;;10.75;6.07;;;25.10;61.80;;;;;;5045139;28;20108;-66
2023/08/11 08:03:34;;;;;;;9.82;5.20;;;25.20;61.60;;;;;;5039766;28;21792;-66
2023/08/11 08:06:03;;;;;;;8.43;5.07;;;25.30;61.30;;;;;;5047944;28;20412;-66
2023/08/11 08:08:28;;;;;;;8.88;4.45;;;25.50;61.40;;;;;;5048579;28;20684;-66
2023/08/11 08:10:54;;;;;;;10.85;5.03;;;25.50;61.20;;;;;;5036486;28;20041;-66
2023/08/11 08:13:20;;;;;;;9.63;6.00;;;25.60;61.10;;;;;;5038252;28;20438;-67
2023/08/11 08:15:45;;;;;;;11.35;5.15;;;25.70;60.60;;;;;;5046897;28;21482;-66
2023/08/11 08:18:11;;;;;;;9.25;4.68;;;25.80;60.60;;;;;;5046074;28;20439;-67
2023/08/11 08:20:37;;;;;;;10.93;5.50;;;25.80;60.50;;;;;;5045767;28;20446;-66
2023/08/11 08:23:03;;;;;;;10.32;5.93;;;25.90;60.10;;;;;;5047512;28;20418;-66
2023/08/11 08:25:28;;;;;;;7.97;4.72;;;26.00;59.80;;;;;;5054149;28;20037;-66
2023/08/11 08:27:55;;;;;;;9.52;4.63;;;26.00;59.70;;;;;;5052432;28;20116;-66
2023/08/11 08:30:21;;;;;;;11.23;5.28;;;26.10;59.60;;;;;;5054338;28;20036;-66
2023/08/11 08:32:46;;;;;;;10.48;4.90;;;26.20;59.40;;;;;;5042412;28;20037;-66
2023/08/11 08:35:12;;;;;;;10.05;4.82;;;26.30;59.30;;;;;;5051368;28;20021;-66
2023/08/11 08:37:38;;;;;;;11.48;4.75;;;26.30;58.90;;;;;;5054172;28;20449;-66
2023/08/11 08:40:07;;;;;;;9.32;4.70;;;26.50;59.00;;;;;;5052558;28;20025;-66
2023/08/11 08:42:33;;;;;;;7.72;4.65;;;26.50;59.20;;;;;;5052673;28;20021;-67
2023/08/11 08:45:00;;;;;;;9.77;4.55;;;26.60;59.10;;;;;;5047315;28;20425;-66
2023/08/11 08:47:26;;;;;;;8.15;4.53;;;26.60;58.70;;;;;;5044330;28;20048;-67
2023/08/11 08:49:53;;;;;;;8.45;4.70;;;26.70;58.60;;;;;;5041393;28;20456;-67
2023/08/11 08:52:20;;;;;;;8.95;5.25;;;26.80;58.60;;;;;;5036483;28;20029;-67
2023/08/11 08:54:47;;;;;;;9.02;4.72;;;26.90;58.70;;;;;;5047958;28;20026;-67
2023/08/11 08:57:12;;;;;;;7.72;4.28;;;26.90;58.50;;;;;;5034768;28;20021;-67
2023/08/11 08:59:39;;;;;;;8.95;5.07;;;27.00;58.50;;;;;;5053816;28;20113;-67
2023/08/11 09:02:06;;;;;;;9.25;4.88;;;27.10;58.20;;;;;;5057872;28;20037;-67
2023/08/11 09:04:32;;;;;;;7.95;4.43;;;27.20;58.00;;;;;;5057269;28;20035;-67
2023/08/11 09:06:59;;;;;;;7.18;4.43;;;27.30;57.80;;;;;;5056139;28;20036;-67
2023/08/11 09:09:27;;;;;;;7.63;3.85;;;27.40;57.80;;;;;;5056164;28;20480;-67
2023/08/11 09:11:54;;;;;;;7.18;4.18;;;27.50;57.80;;;;;;5057574;28;20040;-67
2023/08/11 09:14:21;;;;;;;7.93;4.00;;;27.50;57.70;;;;;;5057123;28;20318;-67
2023/08/11 09:16:49;;;;;;;6.30;3.28;;;27.60;57.30;;;;;;5049473;28;20047;-67
2023/08/11 09:19:15;;;;;;;8.65;3.67;;;27.70;57.20;;;;;;5049771;28;20037;-67
2023/08/11 09:21:43;;;;;;;9.02;4.28;;;27.80;57.40;;;;;;5061745;28;20078;-67
2023/08/11 09:24:13;;;;;;;9.88;4.00;;;27.80;57.40;;;;;;5048988;28;20029;-67
2023/08/11 09:26:44;;;;;;;9.13;3.90;;;28.00;57.20;;;;;;5030364;28;20037;-67
2023/08/11 09:29:14;;;;;;;8.05;4.15;;;28.10;57.10;;;;;;5063664;28;20353;-67
2023/08/11 09:31:41;;;;;;;7.53;3.65;;;28.10;56.90;;;;;;5047565;28;20025;-66
2023/08/11 09:34:15;;;;;;;7.38;3.38;;;28.20;56.80;;;;;;5042935;28;20426;-67
2023/08/11 09:36:44;;;;;;;9.68;4.07;;;28.40;56.60;;;;;;5023595;28;20386;-67
2023/08/11 09:39:11;;;;;;;11.48;3.75;;;28.50;56.50;;;;;;5042111;28;20025;-66
2023/08/11 09:41:47;;;;;;;7.15;3.50;;;28.50;56.20;;;;;;5053401;28;20527;-67
2023/08/11 09:44:23;;;;;;;7.60;3.53;;;28.60;56.00;;;;;;5041264;28;20106;-67
2023/08/11 09:46:49;;;;;;;6.78;3.00;;;28.70;55.60;;;;;;5045445;28;20013;-67
2023/08/11 09:49:16;;;;;;;7.88;3.63;;;28.70;55.70;;;;;;5047465;28;20048;-67
2023/08/11 09:51:42;;;;;;;6.05;2.92;;;28.80;55.70;;;;;;5046070;28;20024;-66
2023/08/11 09:54:10;;;;;;;6.45;3.15;;;28.90;55.50;;;;;;5047638;28;20386;-67
2023/08/11 09:56:38;;;;;;;8.63;3.72;;;29.00;54.90;;;;;;5046734;28;20062;-67
2023/08/11 09:59:25;;;;;;;6.25;3.00;;;29.00;54.90;;;;;;5045237;28;20110;-67
2023/08/11 10:01:56;;;;;;;7.38;3.00;;;29.00;54.40;;;;;;5045460;28;20041;-66
2023/08/11 10:04:29;;;;;;;9.07;3.38;;;28.90;54.10;;;;;;5062635;28;20025;-67
2023/08/11 10:06:58;;;;;;;7.07;3.15;;;28.80;54.40;;;;;;5040513;28;20017;-66
2023/08/11 10:09:26;;;;;;;5.88;2.75;;;28.80;54.20;;;;;;5042647;28;20021;-67
2023/08/11 10:11:54;;;;;;;5.70;2.70;;;28.80;54.20;;;;;;5030020;28;20387;-66
2023/08/11 10:14:21;;;;;;;7.22;3.20;;;29.00;54.60;;;;;;5040916;28;20453;-67
2023/08/11 10:16:47;;;;;;;7.35;2.90;;;29.00;53.70;;;;;;5044426;28;20516;-67
2023/08/11 10:19:13;;;;;;;6.57;3.03;;;29.20;53.10;;;;;;5044303;28;20069;-67
2023/08/11 10:21:39;;;;;;;6.70;2.70;;;29.10;52.20;;;;;;5047974;28;20043;-67
2023/08/11 10:24:06;;;;;;;6.13;3.15;;;28.90;52.00;;;;;;5049335;28;20476;-68
2023/08/11 10:26:33;;;;;;;6.43;2.85;;;28.90;52.30;;;;;;5051202;28;20036;-68
2023/08/11 10:29:00;;;;;;;8.82;3.60;;;29.00;52.40;;;;;;5050457;28;20036;-67
2023/08/11 10:31:26;;;;;;;7.25;3.05;;;29.10;52.30;;;;;;5049431;28;20194;-67
2023/08/11 10:33:53;;;;;;;5.55;2.75;;;29.20;51.90;;;;;;5046254;28;20111;-67
2023/08/11 10:36:23;;;;;;;6.65;3.15;;;29.30;51.60;;;;;;5048306;28;20040;-66
2023/08/11 10:39:00;;;;;;;7.38;3.00;;;29.30;51.10;;;;;;5048234;28;20025;-67
2023/08/11 10:41:27;;;;;;;6.32;2.80;;;29.30;51.10;;;;;;5051422;28;20089;-68
2023/08/11 10:43:54;;;;;;;5.63;2.55;;;29.30;51.70;;;;;;5051099;28;20025;-68
2023/08/11 10:46:29;;;;;;;6.05;3.00;;;29.20;52.00;;;;;;5050492;28;20028;-68
2023/08/11 10:48:58;;;;;;;6.63;2.72;;;29.20;51.60;;;;;;5048220;28;20457;-67
2023/08/11 10:51:32;;;;;;;5.80;2.60;;;29.30;51.80;;;;;;5046363;28;20017;-68
2023/08/11 10:54:02;;;;;;;6.35;3.10;;;29.40;51.90;;;;;;5037490;28;20047;-67
2023/08/11 10:56:30;;;;;;;6.07;2.80;;;29.40;51.60;;;;;;5045261;28;20203;-68
2023/08/11 10:59:27;;;;;;;6.32;2.55;;;29.50;51.90;;;;;;5055120;28;20381;-67
2023/08/11 11:01:54;;;;;;;7.65;2.78;;;29.70;51.70;;;;;;5040998;28;20044;-67
2023/08/11 11:04:27;;;;;;;7.35;3.20;;;29.70;51.70;;;;;;5043792;28;20033;-69
2023/08/11 11:06:52;;;;;;;4.88;2.60;;;29.70;51.00;;;;;;5029929;28;20108;-69
2023/08/11 11:09:19;;;;;;;6.18;2.60;;;29.80;51.20;;;;;;5045439;28;20152;-67
2023/08/11 11:11:45;;;;;;;5.95;2.58;;;29.80;51.20;;;;;;5022662;28;20025;-67
2023/08/11 11:14:12;;;;;;;6.18;2.72;;;29.90;51.10;;;;;;5023840;28;20021;-67
2023/08/11 11:16:39;;;;;;;8.05;2.97;;;29.90;51.10;;;;;;5045203;28;20033;-67
2023/08/11 11:19:07;;;;;;;4.50;2.17;;;30.00;50.80;;;;;;5047863;28;20158;-66
2023/08/11 11:21:34;;;;;;;5.38;2.53;;;30.00;50.50;;;;;;5046203;28;20023;-66
2023/08/11 11:24:00;;;;;;;4.20;2.13;;;30.10;50.40;;;;;;5044695;28;20033;-67
2023/08/11 11:26:27;;;;;;;5.68;2.40;;;30.10;50.40;;;;;;5033762;28;20088;-66
2023/08/11 11:28:55;;;;;;;5.68;2.60;;;30.10;50.50;;;;;;5040615;28;20124;-67
2023/08/11 11:31:22;;;;;;;6.07;2.65;;;30.10;50.40;;;;;;5036145;28;20025;-67
2023/08/11 11:33:49;;;;;;;5.80;2.80;;;30.00;50.10;;;;;;5046699;28;20041;-68
2023/08/11 11:36:17;;;;;;;6.90;2.80;;;30.10;50.40;;;;;;5047222;28;20021;-67
2023/08/11 11:38:43;;;;;;;5.43;2.53;;;30.10;50.50;;;;;;5045874;28;20040;-67
2023/08/11 11:41:10;;;;;;;6.80;2.80;;;30.20;50.40;;;;;;5046908;28;20033;-70
2023/08/11 11:43:37;;;;;;;5.00;2.20;;;30.20;50.50;;;;;;5047083;28;20065;-64
2023/08/11 11:46:03;;;;;;;8.05;2.85;;;30.20;50.60;;;;;;5049112;28;20028;-63
2023/08/11 11:48:29;;;;;;;5.95;2.30;;;30.20;50.50;;;;;;5045236;28;20519;-64
2023/08/11 11:50:56;;;;;;;5.20;2.47;;;30.20;50.50;;;;;;5048644;28;20029;-67
2023/08/11 11:53:23;;;;;;;5.13;2.28;;;30.20;50.40;;;;;;5043914;28;20027;-64
2023/08/11 11:55:51;;;;;;;6.65;2.30;;;30.20;50.20;;;;;;5044353;28;20445;-64
2023/08/11 11:58:17;;;;;;;4.28;2.08;;;30.20;50.50;;;;;;5040652;28;20065;-65
2023/08/11 12:00:46;;;;;;;5.85;2.40;;;30.20;50.60;;;;;;5045476;28;20021;-65
2023/08/11 12:03:12;;;;;;;6.40;2.30;;;30.20;50.70;;;;;;5045816;28;20017;-66
2023/08/11 12:05:38;;;;;;;6.13;2.08;;;30.10;50.80;;;;;;5049747;28;20049;-66
2023/08/11 12:08:27;;;;;;;4.93;2.28;;;30.10;50.90;;;;;;5049049;28;20024;-66
2023/08/11 12:10:53;;;;;;;5.70;2.58;;;30.10;51.20;;;;;;5033945;28;20045;-65
2023/08/11 12:13:18;;;;;;;6.85;2.50;;;30.00;51.40;;;;;;5045304;28;20082;-65
2023/08/11 12:15:48;;;;;;;5.68;2.50;;;30.00;51.40;;;;;;5048018;28;20025;-66
2023/08/11 12:18:14;;;;;;;4.28;2.38;;;29.90;51.40;;;;;;5039455;28;20025;-66
2023/08/11 12:20:40;;;;;;;5.30;2.30;;;29.90;51.40;;;;;;5026508;28;20025;-67
2023/08/11 12:23:06;;;;;;;5.88;2.50;;;29.80;51.30;;;;;;5048821;28;20037;-68
2023/08/11 12:25:33;;;;;;;4.75;2.30;;;29.70;51.20;;;;;;5043299;28;20049;-68
2023/08/11 12:28:01;;;;;;;5.43;2.40;;;29.70;51.50;;;;;;5050581;28;20075;-68
2023/08/11 12:30:28;;;;;;;5.40;2.58;;;29.60;51.30;;;;;;5047359;28;20040;-67
2023/08/11 12:32:54;;;;;;;5.40;2.30;;;29.50;51.30;;;;;;5048797;28;20021;-68
2023/08/11 12:35:20;;;;;;;5.55;2.50;;;29.50;51.30;;;;;;5029327;28;20040;-69
2023/08/11 12:37:46;;;;;;;6.88;3.05;;;29.40;51.60;;;;;;5052454;28;20025;-68
2023/08/11 12:40:12;;;;;;;7.38;2.58;;;29.40;51.80;;;;;;5047509;28;20059;-67
2023/08/11 12:42:39;;;;;;;5.57;2.50;;;29.30;51.90;;;;;;5050598;28;20174;-68